Aviation Digital Data Service (ADDS)

Output produced by TAFs form (0434 UTC 22 September 2017)
found at http://www.aviationweather.gov/adds/tafs/
 
METAR text: RJTL 220207Z 12005KT 080V170 9999 -SHRA FEW015 BKN030 BKN060 25/19 Q1017 RMK 1CU015 6CU030 7SC060 A3005
Conditions at: RJTL (SHIMOFUSA (JMSDF, JP) observed 0207 UTC 22 September 2017
Temperature: 25.0°C (77°F)
Dewpoint: 19.0°C (66°F) [RH = 69%]
Pressure (altimeter): 30.03 inches Hg (1017.0 mb)
Winds: from the ESE (120 degrees) at 6 MPH (5 knots; 2.6 m/s)
Visibility: 6 or more miles (10+ km)
Ceiling: 3000 feet AGL
Clouds: few clouds at 1500 feet AGL
broken clouds at 3000 feet AGL
broken clouds at 6000 feet AGL
Weather: -SHRA  (light rain showers)